sensor_id;sensor_type;location;lat;lon;timestamp;temperature;humidity
73438;DHT22;66471;56.532;21.020;2023-07-16T08:15:19;27.10;49.80
73438;DHT22;66471;56.532;21.020;2023-07-16T08:17:46;27.00;49.80
73438;DHT22;66471;56.532;21.020;2023-07-16T08:20:15;27.20;49.20
73438;DHT22;66471;56.532;21.020;2023-07-16T08:22:42;27.30;49.10
73438;DHT22;66471;56.532;21.020;2023-07-16T08:56:49;29.40;45.70
73438;DHT22;66471;56.532;21.020;2023-07-16T08:59:17;29.40;44.90
73438;DHT22;66471;56.532;21.020;2023-07-16T09:01:48;30.10;43.80
73438;DHT22;66471;56.532;21.020;2023-07-16T09:04:16;30.50;43.10
73438;DHT22;66471;56.532;21.020;2023-07-16T09:06:43;31.40;41.60
73438;DHT22;66471;56.532;21.020;2023-07-16T09:09:22;31.60;40.20
73438;DHT22;66471;56.532;21.020;2023-07-16T09:11:49;31.90;39.00
73438;DHT22;66471;56.532;21.020;2023-07-16T09:14:18;32.00;38.90
73438;DHT22;66471;56.532;21.020;2023-07-16T09:16:52;32.10;37.90
73438;DHT22;66471;56.532;21.020;2023-07-16T09:19:21;31.60;40.30
73438;DHT22;66471;56.532;21.020;2023-07-16T09:21:50;31.50;40.70
73438;DHT22;66471;56.532;21.020;2023-07-16T09:24:18;32.10;39.00
73438;DHT22;66471;56.532;21.020;2023-07-16T09:26:52;32.10;39.30
73438;DHT22;66471;56.532;21.020;2023-07-16T09:29:20;31.60;40.50
73438;DHT22;66471;56.532;21.020;2023-07-16T09:32:00;32.10;39.70
73438;DHT22;66471;56.532;21.020;2023-07-16T09:34:29;33.00;37.50
73438;DHT22;66471;56.532;21.020;2023-07-16T09:36:57;33.30;36.60
73438;DHT22;66471;56.532;21.020;2023-07-16T09:39:25;33.60;36.50
73438;DHT22;66471;56.532;21.020;2023-07-16T09:41:53;33.60;36.00
73438;DHT22;66471;56.532;21.020;2023-07-16T09:44:23;33.40;36.20
73438;DHT22;66471;56.532;21.020;2023-07-16T09:46:51;34.00;35.40
73438;DHT22;66471;56.532;21.020;2023-07-16T09:49:18;33.70;35.60
73438;DHT22;66471;56.532;21.020;2023-07-16T09:51:45;33.90;34.60
73438;DHT22;66471;56.532;21.020;2023-07-16T09:54:15;33.00;36.10
73438;DHT22;66471;56.532;21.020;2023-07-16T09:56:52;32.40;36.50
73438;DHT22;66471;56.532;21.020;2023-07-16T09:59:23;31.60;39.10
73438;DHT22;66471;56.532;21.020;2023-07-16T10:01:52;30.80;40.20
73438;DHT22;66471;56.532;21.020;2023-07-16T10:04:20;30.10;42.00
73438;DHT22;66471;56.532;21.020;2023-07-16T10:06:57;30.10;42.00
73438;DHT22;66471;56.532;21.020;2023-07-16T10:09:38;30.10;42.60
73438;DHT22;66471;56.532;21.020;2023-07-16T10:12:14;29.80;44.40
73438;DHT22;66471;56.532;21.020;2023-07-16T10:14:52;29.80;44.80
73438;DHT22;66471;56.532;21.020;2023-07-16T10:17:21;29.30;45.60
73438;DHT22;66471;56.532;21.020;2023-07-16T10:19:58;28.30;48.70
73438;DHT22;66471;56.532;21.020;2023-07-16T10:24:59;26.90;53.50
73438;DHT22;66471;56.532;21.020;2023-07-16T10:27:32;26.80;54.20
73438;DHT22;66471;56.532;21.020;2023-07-16T10:30:04;26.60;54.50
73438;DHT22;66471;56.532;21.020;2023-07-16T10:32:33;26.50;56.10
73438;DHT22;66471;56.532;21.020;2023-07-16T10:35:02;26.60;55.90
73438;DHT22;66471;56.532;21.020;2023-07-16T10:37:29;26.80;54.80
73438;DHT22;66471;56.532;21.020;2023-07-16T10:40:00;27.20;54.10
73438;DHT22;66471;56.532;21.020;2023-07-16T10:42:28;27.70;51.30
73438;DHT22;66471;56.532;21.020;2023-07-16T10:44:58;28.90;49.90
73438;DHT22;66471;56.532;21.020;2023-07-16T10:47:32;29.60;47.20
73438;DHT22;66471;56.532;21.020;2023-07-16T10:50:03;29.50;47.00
73438;DHT22;66471;56.532;21.020;2023-07-16T10:52:30;29.70;46.50
73438;DHT22;66471;56.532;21.020;2023-07-16T10:54:57;29.40;47.50
73438;DHT22;66471;56.532;21.020;2023-07-16T10:57:26;28.70;50.10
73438;DHT22;66471;56.532;21.020;2023-07-16T10:59:58;28.90;50.40
73438;DHT22;66471;56.532;21.020;2023-07-16T11:02:25;29.30;49.20
73438;DHT22;66471;56.532;21.020;2023-07-16T12:05:47;26.50;60.00
73438;DHT22;66471;56.532;21.020;2023-07-16T12:08:19;26.20;62.50
73438;DHT22;66471;56.532;21.020;2023-07-16T12:10:47;26.20;62.30
73438;DHT22;66471;56.532;21.020;2023-07-16T12:13:14;26.40;60.80
73438;DHT22;66471;56.532;21.020;2023-07-16T12:15:41;26.40;60.50
73438;DHT22;66471;56.532;21.020;2023-07-16T12:18:08;26.60;60.40
73438;DHT22;66471;56.532;21.020;2023-07-16T12:20:35;26.50;60.50
73438;DHT22;66471;56.532;21.020;2023-07-16T12:23:07;26.90;59.70
73438;DHT22;66471;56.532;21.020;2023-07-16T12:25:34;27.70;57.30
73438;DHT22;66471;56.532;21.020;2023-07-16T12:28:02;28.50;55.30
73438;DHT22;66471;56.532;21.020;2023-07-16T12:30:30;27.60;56.90
73438;DHT22;66471;56.532;21.020;2023-07-16T12:32:57;27.10;58.60
73438;DHT22;66471;56.532;21.020;2023-07-16T12:35:24;25.90;62.90
73438;DHT22;66471;56.532;21.020;2023-07-16T12:37:51;25.80;64.50
73438;DHT22;66471;56.532;21.020;2023-07-16T12:40:18;25.80;64.00
73438;DHT22;66471;56.532;21.020;2023-07-16T12:42:46;25.70;64.10
73438;DHT22;66471;56.532;21.020;2023-07-16T12:45:13;25.30;66.00
73438;DHT22;66471;56.532;21.020;2023-07-16T12:47:40;24.70;67.70
73438;DHT22;66471;56.532;21.020;2023-07-16T12:50:08;24.60;68.50
73438;DHT22;66471;56.532;21.020;2023-07-16T12:52:38;24.40;69.00
73438;DHT22;66471;56.532;21.020;2023-07-16T12:55:05;24.20;70.10
73438;DHT22;66471;56.532;21.020;2023-07-16T12:57:32;23.90;70.10
73438;DHT22;66471;56.532;21.020;2023-07-16T12:59:59;23.90;72.00
73438;DHT22;66471;56.532;21.020;2023-07-16T13:02:28;23.50;73.60
73438;DHT22;66471;56.532;21.020;2023-07-16T13:04:56;23.40;75.10
73438;DHT22;66471;56.532;21.020;2023-07-16T13:07:23;23.20;75.20
73438;DHT22;66471;56.532;21.020;2023-07-16T13:09:50;22.90;79.50
73438;DHT22;66471;56.532;21.020;2023-07-16T13:12:26;22.70;80.10
73438;DHT22;66471;56.532;21.020;2023-07-16T13:14:54;22.60;81.10
73438;DHT22;66471;56.532;21.020;2023-07-16T13:17:21;22.50;81.20
73438;DHT22;66471;56.532;21.020;2023-07-16T13:19:48;22.40;81.10
73438;DHT22;66471;56.532;21.020;2023-07-16T13:22:15;22.30;81.90
73438;DHT22;66471;56.532;21.020;2023-07-16T13:24:42;22.20;81.20
73438;DHT22;66471;56.532;21.020;2023-07-16T13:27:19;22.30;81.60
73438;DHT22;66471;56.532;21.020;2023-07-16T13:29:47;22.30;81.40
73438;DHT22;66471;56.532;21.020;2023-07-16T13:32:14;22.20;81.30
73438;DHT22;66471;56.532;21.020;2023-07-16T13:34:42;22.30;81.20
73438;DHT22;66471;56.532;21.020;2023-07-16T13:37:10;22.20;81.60
73438;DHT22;66471;56.532;21.020;2023-07-16T13:39:37;22.30;81.60
73438;DHT22;66471;56.532;21.020;2023-07-16T13:42:04;22.30;80.80
73438;DHT22;66471;56.532;21.020;2023-07-16T13:44:49;22.40;80.50
73438;DHT22;66471;56.532;21.020;2023-07-16T18:13:23;19.40;87.20
73438;DHT22;66471;56.532;21.020;2023-07-16T18:15:51;19.40;86.50
73438;DHT22;66471;56.532;21.020;2023-07-16T18:18:19;19.50;86.40
73438;DHT22;66471;56.532;21.020;2023-07-16T18:20:48;19.50;86.30
73438;DHT22;66471;56.532;21.020;2023-07-16T18:23:17;19.50;85.50
73438;DHT22;66471;56.532;21.020;2023-07-16T18:25:45;19.40;85.70
73438;DHT22;66471;56.532;21.020;2023-07-16T18:28:13;19.40;85.80
73438;DHT22;66471;56.532;21.020;2023-07-16T18:30:43;19.40;83.80
73438;DHT22;66471;56.532;21.020;2023-07-16T18:33:10;19.40;84.30
73438;DHT22;66471;56.532;21.020;2023-07-16T18:35:38;19.30;84.30
73438;DHT22;66471;56.532;21.020;2023-07-16T18:38:06;19.30;84.80
